createdAt,value
2017-12-16T00:00:10.012Z,78.60
2017-12-16T00:02:38.296Z,78.50
2017-12-16T00:05:05.822Z,78.40
2017-12-16T00:07:33.369Z,78.40
2017-12-16T00:10:00.885Z,78.50
2017-12-16T00:12:28.426Z,78.20
2017-12-16T00:14:55.936Z,78.20
2017-12-16T00:17:23.448Z,78.10
2017-12-16T00:19:51.055Z,78.20
2017-12-16T00:22:18.608Z,78.30
2017-12-16T00:24:46.153Z,78.60
2017-12-16T00:27:13.707Z,78.40
2017-12-16T00:29:41.258Z,78.30
2017-12-16T00:32:08.779Z,78.40
2017-12-16T00:34:37.031Z,78.50
2017-12-16T00:37:05.297Z,78.70
2017-12-16T00:39:36.540Z,78.40
2017-12-16T00:42:04.052Z,78.40
2017-12-16T00:44:31.577Z,78.30
2017-12-16T00:46:59.852Z,78.10
2017-12-16T00:49:28.125Z,78.20
2017-12-16T00:51:56.416Z,78.10
2017-12-16T00:54:23.904Z,78.10
2017-12-16T00:56:51.449Z,78.20
2017-12-16T00:59:18.966Z,78.00
2017-12-16T01:01:47.264Z,78.00
2017-12-16T01:04:14.774Z,78.00
2017-12-16T01:06:42.313Z,78.00
2017-12-16T01:09:09.815Z,78.20
2017-12-16T01:11:38.119Z,78.20
2017-12-16T01:14:05.621Z,78.20
2017-12-16T01:16:33.941Z,77.70
2017-12-16T01:19:01.446Z,77.70
2017-12-16T01:21:28.983Z,77.80
2017-12-16T01:23:56.480Z,78.60
2017-12-16T01:26:23.978Z,78.30
2017-12-16T01:28:51.504Z,78.10
2017-12-16T01:31:19.777Z,78.50
2017-12-16T01:37:00.573Z,78.60
2017-12-16T01:39:28.873Z,78.40
2017-12-16T01:41:56.378Z,78.40
2017-12-16T01:44:23.892Z,78.30
2017-12-16T01:46:51.425Z,78.60
2017-12-16T01:49:18.936Z,78.90
2017-12-16T01:51:46.467Z,79.30
2017-12-16T01:54:13.978Z,79.50
2017-12-16T01:56:42.264Z,80.10
2017-12-16T01:59:10.537Z,80.40
2017-12-16T02:01:38.060Z,80.40
2017-12-16T02:04:05.579Z,80.60
2017-12-16T02:06:33.077Z,80.80
2017-12-16T02:09:00.605Z,80.90
2017-12-16T02:11:28.095Z,81.10
2017-12-16T02:13:55.613Z,81.00
2017-12-16T02:16:23.141Z,81.20
2017-12-16T02:18:50.665Z,81.30
2017-12-16T02:21:18.201Z,81.40
2017-12-16T02:23:45.705Z,81.30
2017-12-16T02:26:13.995Z,81.50
2017-12-16T02:28:41.501Z,81.30
2017-12-16T02:31:09.787Z,81.40
2017-12-16T02:33:38.064Z,81.40
2017-12-16T02:36:05.587Z,81.40
2017-12-16T02:38:33.116Z,81.60
2017-12-16T02:41:00.616Z,81.80
2017-12-16T02:43:28.160Z,82.50
2017-12-16T02:45:56.456Z,82.20
2017-12-16T02:48:23.983Z,82.20
2017-12-16T02:50:51.492Z,82.20
2017-12-16T02:53:19.064Z,82.30
2017-12-16T02:55:47.337Z,82.10
2017-12-16T02:58:15.634Z,82.00
2017-12-16T03:00:43.154Z,82.00
2017-12-16T03:03:10.680Z,82.30
2017-12-16T03:05:38.209Z,82.60
2017-12-16T03:08:05.708Z,82.60
2017-12-16T03:10:33.337Z,82.40
2017-12-16T03:13:00.841Z,82.20
2017-12-16T03:15:28.353Z,82.40
2017-12-16T03:17:55.884Z,82.30
2017-12-16T03:20:23.390Z,82.30
2017-12-16T03:22:50.936Z,82.40
2017-12-16T03:25:18.477Z,82.40
2017-12-16T03:27:45.972Z,82.50
2017-12-16T03:30:13.529Z,82.70
2017-12-16T03:32:41.052Z,82.90
2017-12-16T03:35:08.579Z,82.90
2017-12-16T03:37:36.846Z,82.60
2017-12-16T03:40:05.138Z,82.70
2017-12-16T03:42:32.648Z,82.70
2017-12-16T03:45:00.921Z,82.70
2017-12-16T03:47:28.444Z,82.70
2017-12-16T03:49:55.959Z,82.40
2017-12-16T03:52:24.265Z,82.50
2017-12-16T03:54:51.770Z,82.60
2017-12-16T03:57:19.302Z,82.70
2017-12-16T03:59:46.803Z,82.80
2017-12-16T04:02:15.092Z,83.40
2017-12-16T04:04:43.347Z,82.70
2017-12-16T04:07:10.872Z,82.70
2017-12-16T04:09:38.374Z,82.80
2017-12-16T04:12:06.671Z,82.90
2017-12-16T04:14:34.210Z,82.90
2017-12-16T04:17:02.479Z,82.60
2017-12-16T04:19:30.776Z,82.90
2017-12-16T04:21:58.282Z,82.90
2017-12-16T04:24:25.813Z,82.90
2017-12-16T04:26:53.323Z,82.70
2017-12-16T04:29:21.645Z,82.90
2017-12-16T04:31:49.148Z,82.80
2017-12-16T04:34:16.684Z,82.80
2017-12-16T04:36:44.188Z,82.90
2017-12-16T04:39:11.729Z,83.00
2017-12-16T04:41:39.248Z,82.80
2017-12-16T04:44:06.838Z,82.70
2017-12-16T04:46:34.312Z,82.90
2017-12-16T04:49:01.892Z,82.90
2017-12-16T04:51:30.142Z,83.00
2017-12-16T04:53:58.430Z,82.80
2017-12-16T04:56:25.945Z,82.80
2017-12-16T04:58:53.474Z,82.70
2017-12-16T05:01:20.991Z,82.90
2017-12-16T05:03:48.539Z,82.70
2017-12-16T05:06:16.834Z,82.80
2017-12-16T05:08:44.332Z,82.80
2017-12-16T05:11:11.846Z,82.70
2017-12-16T05:13:39.371Z,82.80
2017-12-16T05:16:07.658Z,83.00
2017-12-16T05:18:35.928Z,83.20
2017-12-16T05:21:04.216Z,83.80
2017-12-16T05:23:32.471Z,83.40
2017-12-16T05:26:00.001Z,83.50
2017-12-16T05:28:27.492Z,83.30
2017-12-16T05:30:55.752Z,83.60
2017-12-16T05:33:23.280Z,83.60
2017-12-16T05:35:50.824Z,83.70
2017-12-16T05:38:18.350Z,84.10
2017-12-16T05:40:46.614Z,84.20
2017-12-16T05:43:14.899Z,84.30
2017-12-16T05:45:43.185Z,84.40
2017-12-16T05:48:10.679Z,84.40
2017-12-16T05:50:38.203Z,84.60
2017-12-16T05:53:05.700Z,84.30
2017-12-16T05:55:33.219Z,84.10
2017-12-16T05:58:00.720Z,84.20
2017-12-16T06:00:28.248Z,83.80
2017-12-16T06:02:55.736Z,84.00
2017-12-16T06:05:23.263Z,84.40
2017-12-16T06:07:50.755Z,84.50
2017-12-16T06:10:18.286Z,84.50
2017-12-16T06:12:45.778Z,84.80
2017-12-16T06:15:13.503Z,84.80
2017-12-16T06:17:41.023Z,85.00
2017-12-16T06:20:08.519Z,85.00
2017-12-16T06:22:36.030Z,85.00
2017-12-16T06:25:04.812Z,85.20
2017-12-16T06:27:33.094Z,85.60
2017-12-16T06:30:00.624Z,85.60
2017-12-16T06:32:28.112Z,85.90
2017-12-16T06:34:55.655Z,85.80
2017-12-16T06:37:23.915Z,85.90
2017-12-16T06:39:51.425Z,85.90
2017-12-16T06:42:18.967Z,86.50
2017-12-16T06:44:46.467Z,85.90
2017-12-16T06:47:14.003Z,85.80
2017-12-16T06:49:41.507Z,85.80
2017-12-16T06:52:09.768Z,86.10
2017-12-16T06:54:37.292Z,86.10
2017-12-16T06:57:04.825Z,85.60
2017-12-16T06:59:32.323Z,85.50
2017-12-16T07:01:59.851Z,85.40
2017-12-16T07:04:27.346Z,85.40
2017-12-16T07:06:55.406Z,85.30
2017-12-16T07:09:22.939Z,85.20
2017-12-16T07:11:50.457Z,85.20
2017-12-16T07:14:18.728Z,85.20
2017-12-16T07:16:46.275Z,85.20
2017-12-16T07:19:14.559Z,84.80
2017-12-16T07:21:42.813Z,84.70
2017-12-16T07:24:10.349Z,84.70
2017-12-16T07:26:38.620Z,84.90
2017-12-16T07:29:06.117Z,84.90
2017-12-16T07:31:34.398Z,85.40
2017-12-16T07:34:02.697Z,84.80
2017-12-16T07:36:30.202Z,84.80
2017-12-16T07:38:57.748Z,84.80
2017-12-16T07:41:25.350Z,84.80
2017-12-16T07:43:53.621Z,84.90
2017-12-16T07:46:21.932Z,85.20
2017-12-16T07:48:49.418Z,85.20
2017-12-16T07:51:16.906Z,85.10
2017-12-16T07:53:45.199Z,85.10
2017-12-16T07:56:12.739Z,85.00
2017-12-16T07:58:40.995Z,85.20
2017-12-16T08:01:08.505Z,85.00
2017-12-16T08:03:36.036Z,85.00
2017-12-16T08:06:04.289Z,85.20
2017-12-16T08:08:31.830Z,85.20
2017-12-16T08:10:59.347Z,85.60
2017-12-16T08:13:26.877Z,85.60
2017-12-16T08:15:55.133Z,85.70
2017-12-16T08:18:22.623Z,85.70
2017-12-16T08:20:50.907Z,85.60
2017-12-16T08:23:18.422Z,85.60
2017-12-16T08:25:45.912Z,85.70
2017-12-16T08:28:13.466Z,86.00
2017-12-16T08:30:41.717Z,86.30
2017-12-16T08:33:09.237Z,86.30
2017-12-16T08:35:36.720Z,86.70
2017-12-16T08:38:04.254Z,86.50
2017-12-16T08:40:31.742Z,86.60
2017-12-16T08:42:59.248Z,86.80
2017-12-16T08:45:26.789Z,87.40
2017-12-16T08:47:54.279Z,86.80
2017-12-16T08:50:21.776Z,87.00
2017-12-16T08:52:49.288Z,86.90
2017-12-16T08:55:18.555Z,87.00
2017-12-16T08:57:46.360Z,87.20
2017-12-16T09:00:22.224Z,87.20
2017-12-16T09:02:49.975Z,87.40
2017-12-16T09:05:17.605Z,87.40
2017-12-16T09:07:45.182Z,87.30
2017-12-16T09:10:12.664Z,87.50
2017-12-16T09:12:40.782Z,87.60
2017-12-16T09:15:09.475Z,87.30
2017-12-16T09:17:37.985Z,87.20
2017-12-16T09:20:05.640Z,87.20
2017-12-16T09:22:33.884Z,87.10
2017-12-16T09:25:01.996Z,87.20
2017-12-16T09:27:33.378Z,87.20
2017-12-16T09:30:01.024Z,87.40
2017-12-16T09:32:28.562Z,87.20
2017-12-16T09:40:49.312Z,87.30
2017-12-16T09:46:13.083Z,87.40
2017-12-16T09:48:40.575Z,87.50
2017-12-16T09:51:09.443Z,87.20
2017-12-16T09:53:37.725Z,86.90
2017-12-16T09:56:05.284Z,86.90
2017-12-16T09:58:34.575Z,86.20
2017-12-16T10:01:02.102Z,86.20
2017-12-16T10:03:30.601Z,86.50
2017-12-16T10:05:58.109Z,86.70
2017-12-16T10:08:25.647Z,86.90
2017-12-16T10:10:53.135Z,86.20
2017-12-16T10:13:20.679Z,86.60
2017-12-16T10:15:48.326Z,86.50
2017-12-16T10:18:15.883Z,86.50
2017-12-16T10:20:43.379Z,86.20
2017-12-16T10:23:10.886Z,86.90
2017-12-16T10:25:38.416Z,87.40
2017-12-16T10:28:05.915Z,86.80
2017-12-16T10:30:33.407Z,87.00
2017-12-16T10:33:00.927Z,87.10
2017-12-16T10:35:28.447Z,86.70
2017-12-16T10:37:55.950Z,86.50
2017-12-16T10:40:23.463Z,86.70
2017-12-16T10:42:51.722Z,85.70
2017-12-16T10:45:19.214Z,85.70
2017-12-16T10:47:46.732Z,85.60
2017-12-16T10:50:14.229Z,85.70
2017-12-16T10:52:41.769Z,85.10
2017-12-16T10:55:10.019Z,85.40
2017-12-16T10:57:37.514Z,85.30
2017-12-16T11:00:05.366Z,85.20
2017-12-16T11:02:33.634Z,85.10
2017-12-16T11:05:01.916Z,85.30
2017-12-16T11:07:30.180Z,85.90
2017-12-16T11:09:58.501Z,85.80
2017-12-16T11:12:26.028Z,85.80
2017-12-16T11:14:54.291Z,86.00
2017-12-16T11:17:22.577Z,85.30
2017-12-16T11:19:50.830Z,85.50
2017-12-16T11:22:18.355Z,85.50
2017-12-16T11:24:45.895Z,85.70
2017-12-16T11:27:13.404Z,86.10
2017-12-16T11:29:40.924Z,86.00
2017-12-16T11:32:08.417Z,86.80
2017-12-16T11:34:35.943Z,85.90
2017-12-16T11:37:03.443Z,85.80
2017-12-16T11:39:31.735Z,85.70
2017-12-16T11:41:59.236Z,85.70
2017-12-16T11:44:28.202Z,85.90
2017-12-16T11:46:55.721Z,85.80
2017-12-16T11:49:24.007Z,86.20
2017-12-16T11:51:52.267Z,86.20
2017-12-16T11:54:20.559Z,86.60
2017-12-16T11:56:48.068Z,86.00
2017-12-16T11:59:15.563Z,85.70
2017-12-16T12:01:43.851Z,85.20
2017-12-16T12:04:11.339Z,85.20
2017-12-16T12:06:38.855Z,85.50
2017-12-16T12:09:07.112Z,86.20
2017-12-16T12:11:34.629Z,86.20
2017-12-16T12:14:02.154Z,86.20
2017-12-16T12:16:30.411Z,85.60
2017-12-16T12:18:57.923Z,85.60
2017-12-16T12:21:25.438Z,85.80
2017-12-16T12:23:53.703Z,86.20
2017-12-16T12:26:21.214Z,86.20
2017-12-16T12:28:48.706Z,86.20
2017-12-16T12:31:16.222Z,86.10
2017-12-16T12:33:43.726Z,86.10
2017-12-16T12:36:11.237Z,86.10
2017-12-16T12:38:38.724Z,85.90
2017-12-16T12:41:07.750Z,85.20
2017-12-16T12:43:36.031Z,85.50
2017-12-16T12:46:03.522Z,85.40
2017-12-16T12:48:31.038Z,85.40
2017-12-16T12:50:59.287Z,85.10
2017-12-16T12:53:26.773Z,85.10
2017-12-16T12:55:54.292Z,85.10
2017-12-16T12:58:21.863Z,85.20
2017-12-16T13:00:49.383Z,85.50
2017-12-16T13:03:16.871Z,85.30
2017-12-16T13:05:44.386Z,85.10
2017-12-16T13:08:11.890Z,85.40
2017-12-16T13:10:39.407Z,85.30
2017-12-16T13:13:06.945Z,85.30
2017-12-16T13:15:35.194Z,85.10
2017-12-16T13:18:03.453Z,85.00
2017-12-16T13:20:31.755Z,84.40
2017-12-16T13:22:59.270Z,84.50
2017-12-16T13:25:26.789Z,84.40
2017-12-16T13:27:54.278Z,84.00
2017-12-16T13:30:21.797Z,84.10
2017-12-16T13:32:49.474Z,84.40
2017-12-16T13:35:17.016Z,84.10
2017-12-16T13:37:44.686Z,84.20
2017-12-16T13:40:12.202Z,83.30
2017-12-16T13:42:39.707Z,81.80
2017-12-16T13:45:07.227Z,81.20
2017-12-16T13:47:35.547Z,80.90
2017-12-16T13:50:03.065Z,80.90
2017-12-16T13:52:30.551Z,81.30
2017-12-16T13:54:58.071Z,81.10
2017-12-16T13:57:26.324Z,81.90
2017-12-16T13:59:53.921Z,81.90
2017-12-16T14:02:21.601Z,82.00
2017-12-16T14:04:49.142Z,82.00
2017-12-16T14:07:16.657Z,82.30
2017-12-16T14:09:44.149Z,82.80
2017-12-16T14:12:11.878Z,83.10
2017-12-16T14:14:39.565Z,83.20
2017-12-16T14:17:07.831Z,83.60
2017-12-16T14:19:36.134Z,83.60
2017-12-16T14:22:03.666Z,83.60
2017-12-16T14:24:32.004Z,83.30
2017-12-16T14:27:00.257Z,83.30
2017-12-16T14:29:27.840Z,83.70
2017-12-16T14:31:55.399Z,83.30
2017-12-16T14:34:23.123Z,83.20
2017-12-16T14:36:50.669Z,83.10
2017-12-16T14:39:18.237Z,82.40
2017-12-16T14:41:45.769Z,82.30
2017-12-16T14:44:14.056Z,82.40
2017-12-16T14:46:41.579Z,82.40
2017-12-16T14:49:09.121Z,82.50
2017-12-16T14:51:36.860Z,82.90
2017-12-16T14:54:05.115Z,83.20
2017-12-16T14:56:33.066Z,83.30
2017-12-16T14:59:02.292Z,83.30
2017-12-16T15:01:29.897Z,83.30
2017-12-16T15:03:58.372Z,83.20
2017-12-16T15:06:26.735Z,83.80
2017-12-16T15:08:55.925Z,83.80
2017-12-16T15:11:24.872Z,84.00
2017-12-16T15:13:56.171Z,83.80
2017-12-16T15:16:32.088Z,83.80
2017-12-16T15:19:02.248Z,83.80
2017-12-16T15:21:30.229Z,84.10
2017-12-16T15:23:58.630Z,83.80
2017-12-16T15:26:28.619Z,83.80
2017-12-16T15:28:57.605Z,83.60
2017-12-16T15:33:59.234Z,83.60
2017-12-16T15:36:26.813Z,83.70
2017-12-16T15:38:54.369Z,83.70
2017-12-16T15:41:21.920Z,83.80
2017-12-16T15:43:49.459Z,83.90
2017-12-16T15:46:22.312Z,83.70
2017-12-16T15:48:49.843Z,83.70
2017-12-16T15:51:17.339Z,83.80
2017-12-16T15:53:45.750Z,83.90
2017-12-16T15:56:13.431Z,83.80
2017-12-16T15:58:42.771Z,83.70
2017-12-16T16:01:10.297Z,83.50
2017-12-16T16:03:38.579Z,83.50
2017-12-16T16:06:06.071Z,83.50
2017-12-16T16:08:34.412Z,83.30
2017-12-16T16:11:01.871Z,83.30
2017-12-16T16:13:29.383Z,83.10
2017-12-16T16:15:56.909Z,83.00
2017-12-16T16:18:25.194Z,83.20
2017-12-16T16:20:53.625Z,82.70
2017-12-16T16:23:21.147Z,82.80
2017-12-16T16:25:48.712Z,83.00
2017-12-16T16:28:16.230Z,83.20
2017-12-16T16:30:43.752Z,83.20
2017-12-16T16:33:12.007Z,82.80
2017-12-16T16:35:39.570Z,82.90
2017-12-16T16:38:07.122Z,82.70
2017-12-16T16:40:34.616Z,82.90
2017-12-16T16:43:02.137Z,83.10
2017-12-16T16:45:29.670Z,83.40
2017-12-16T16:47:57.957Z,83.60
2017-12-16T16:50:25.504Z,83.60
2017-12-16T16:52:53.790Z,83.00
2017-12-16T16:55:21.349Z,83.00
2017-12-16T16:57:48.847Z,83.40
2017-12-16T17:00:16.334Z,83.50
2017-12-16T17:02:44.622Z,83.70
2017-12-16T17:05:12.110Z,83.60
2017-12-16T17:07:39.669Z,83.70
2017-12-16T17:10:07.218Z,83.80
2017-12-16T17:12:34.746Z,84.00
2017-12-16T17:15:02.256Z,84.20
2017-12-16T17:17:29.824Z,84.30
2017-12-16T17:19:57.324Z,84.50
2017-12-16T17:22:24.926Z,84.30
2017-12-16T17:24:52.418Z,84.20
2017-12-16T17:27:20.762Z,84.30
2017-12-16T17:29:48.272Z,84.30
2017-12-16T17:32:15.853Z,84.30
2017-12-16T17:34:43.442Z,84.30
2017-12-16T17:37:10.971Z,84.20
2017-12-16T17:39:38.529Z,84.10
2017-12-16T17:42:06.020Z,83.90
2017-12-16T17:44:33.538Z,84.00
2017-12-16T17:47:01.034Z,83.90
2017-12-16T17:49:28.527Z,83.90
2017-12-16T17:51:56.080Z,84.00
2017-12-16T17:54:24.377Z,83.60
2017-12-16T17:56:51.949Z,83.50
2017-12-16T17:59:19.496Z,83.40
2017-12-16T18:01:47.057Z,83.20
2017-12-16T18:04:14.630Z,83.00
2017-12-16T18:06:42.205Z,83.20
2017-12-16T18:09:09.779Z,83.20
2017-12-16T18:11:37.319Z,83.10
2017-12-16T18:14:04.862Z,82.80
2017-12-16T18:16:32.428Z,82.50
2017-12-16T18:19:00.745Z,81.40
2017-12-16T18:21:29.009Z,81.20
2017-12-16T18:23:57.362Z,81.00
2017-12-16T18:26:24.910Z,80.90
2017-12-16T18:28:52.460Z,80.60
2017-12-16T18:31:19.960Z,80.40
2017-12-16T18:33:48.289Z,80.20
2017-12-16T18:36:15.783Z,79.70
2017-12-16T18:38:43.346Z,79.80
2017-12-16T18:41:10.881Z,79.70
2017-12-16T18:43:38.443Z,79.40
2017-12-16T18:46:06.047Z,79.80
2017-12-16T18:48:33.549Z,80.20
2017-12-16T18:51:01.093Z,80.60
2017-12-16T18:53:28.602Z,81.00
2017-12-16T18:55:56.900Z,82.00
2017-12-16T18:58:24.508Z,82.00
2017-12-16T19:00:51.995Z,82.20
2017-12-16T19:03:19.479Z,82.10
2017-12-16T19:05:47.076Z,81.90
2017-12-16T19:08:14.618Z,82.00
2017-12-16T19:10:42.210Z,82.00
2017-12-16T19:13:09.751Z,82.00
2017-12-16T19:15:37.262Z,82.20
2017-12-16T19:18:04.803Z,82.30
2017-12-16T19:20:32.370Z,82.10
2017-12-16T19:22:59.929Z,82.20
2017-12-16T19:25:27.418Z,82.20
2017-12-16T19:27:55.005Z,82.50
2017-12-16T19:30:22.604Z,82.70
2017-12-16T19:32:50.137Z,82.70
2017-12-16T19:35:17.705Z,83.10
2017-12-16T19:37:45.243Z,83.10
2017-12-16T19:40:12.814Z,83.00
2017-12-16T19:42:40.387Z,83.10
2017-12-16T19:45:08.622Z,83.30
2017-12-16T19:47:36.135Z,83.30
2017-12-16T19:50:05.610Z,83.50
2017-12-16T19:52:33.204Z,83.50
2017-12-16T19:55:01.531Z,83.50
2017-12-16T19:57:29.077Z,83.50
2017-12-16T19:59:56.622Z,83.50
2017-12-16T20:02:24.169Z,83.60
2017-12-16T20:04:51.660Z,83.70
2017-12-16T20:07:19.238Z,83.70
2017-12-16T20:09:46.786Z,83.90
2017-12-16T20:12:14.324Z,84.00
2017-12-16T20:14:41.866Z,83.90
2017-12-16T20:17:09.413Z,83.90
2017-12-16T20:19:36.988Z,83.90
2017-12-16T20:22:05.289Z,84.00
2017-12-16T20:24:33.704Z,84.00
2017-12-16T20:27:01.285Z,84.10
2017-12-16T20:29:28.841Z,84.30
2017-12-16T20:31:56.413Z,84.10
2017-12-16T20:34:23.984Z,83.80
2017-12-16T20:36:51.545Z,84.10
2017-12-16T20:39:19.874Z,84.10
2017-12-16T20:41:47.416Z,84.20
2017-12-16T20:44:14.960Z,84.20
2017-12-16T20:46:42.618Z,84.20
2017-12-16T20:49:10.154Z,84.30
2017-12-16T20:51:38.551Z,84.50
2017-12-16T20:54:06.876Z,84.50
2017-12-16T20:56:34.418Z,84.60
2017-12-16T20:59:02.198Z,84.60
2017-12-16T21:01:29.755Z,84.40
2017-12-16T21:03:57.302Z,84.00
2017-12-16T21:06:24.867Z,84.50
2017-12-16T21:08:52.430Z,84.30
2017-12-16T21:11:19.966Z,83.90
2017-12-16T21:13:47.534Z,83.70
2017-12-16T21:16:15.854Z,83.90
2017-12-16T21:18:44.182Z,83.70
2017-12-16T21:21:12.489Z,83.70
2017-12-16T21:23:40.161Z,83.70
2017-12-16T21:26:08.797Z,83.90
2017-12-16T21:28:36.429Z,83.90
2017-12-16T21:31:09.673Z,84.10
2017-12-16T21:33:38.115Z,84.10
2017-12-16T21:36:05.662Z,84.40
2017-12-16T21:38:33.357Z,84.30
2017-12-16T21:41:00.972Z,83.90
2017-12-16T21:43:28.570Z,84.30
2017-12-16T21:45:56.134Z,84.50
2017-12-16T21:48:23.811Z,84.40
2017-12-16T21:50:51.347Z,84.10
2017-12-16T21:53:20.519Z,84.30
2017-12-16T21:55:48.085Z,84.00
2017-12-16T21:58:15.695Z,84.10
2017-12-16T22:00:44.992Z,84.60
2017-12-16T22:03:13.299Z,84.30
2017-12-16T22:05:41.020Z,84.30
2017-12-16T22:08:08.873Z,84.60
2017-12-16T22:10:38.284Z,84.40
2017-12-16T22:13:06.943Z,84.60
2017-12-16T22:15:34.484Z,84.30
2017-12-16T22:18:03.026Z,84.40
2017-12-16T22:20:31.351Z,84.30
2017-12-16T22:22:59.000Z,84.30
2017-12-16T22:25:26.592Z,84.30
2017-12-16T22:27:54.310Z,84.50
2017-12-16T22:30:21.879Z,84.40
2017-12-16T22:32:49.437Z,84.40
2017-12-16T22:35:17.097Z,84.70
2017-12-16T22:37:44.656Z,84.70
2017-12-16T22:40:12.269Z,84.70
2017-12-16T22:42:39.842Z,84.50
2017-12-16T22:45:08.166Z,84.70
2017-12-16T22:47:35.698Z,84.70
2017-12-16T22:50:03.406Z,84.70
2017-12-16T22:52:30.947Z,84.70
2017-12-16T22:54:58.546Z,84.80
2017-12-16T22:57:26.927Z,84.80
2017-12-16T22:59:54.481Z,84.80
2017-12-16T23:02:23.679Z,85.10
2017-12-16T23:04:51.986Z,84.50
2017-12-16T23:07:19.520Z,84.50
2017-12-16T23:09:47.084Z,84.70
2017-12-16T23:12:14.782Z,84.80
2017-12-16T23:14:42.328Z,84.80
2017-12-16T23:17:09.862Z,84.70
2017-12-16T23:19:37.416Z,85.00
2017-12-16T23:22:04.939Z,85.10
2017-12-16T23:24:32.480Z,84.90
2017-12-16T23:26:59.984Z,84.60
2017-12-16T23:29:28.290Z,84.50
2017-12-16T23:31:55.843Z,84.50
2017-12-16T23:34:23.489Z,84.60
2017-12-16T23:36:50.987Z,84.40
2017-12-16T23:39:18.522Z,84.50
2017-12-16T23:41:46.119Z,84.50
2017-12-16T23:44:13.707Z,84.40
2017-12-16T23:46:41.984Z,83.90
2017-12-16T23:49:09.825Z,83.90
2017-12-16T23:51:38.492Z,84.30
2017-12-16T23:54:05.996Z,84.00
2017-12-16T23:56:33.551Z,83.90
2017-12-16T23:59:01.091Z,84.10
